sensor_id;sensor_type;location;lat;lon;timestamp;P1;durP1;ratioP1;P2;durP2;ratioP2
66256;SDS011;53049;43.446;3.698;2022-10-13T00:01:51;5.38;;;2.50;;
66256;SDS011;53049;43.446;3.698;2022-10-13T00:04:16;8.65;;;2.75;;
66256;SDS011;53049;43.446;3.698;2022-10-13T00:06:42;4.97;;;2.63;;
66256;SDS011;53049;43.446;3.698;2022-10-13T00:09:08;7.82;;;2.95;;
66256;SDS011;53049;43.446;3.698;2022-10-13T00:11:33;5.63;;;2.75;;
66256;SDS011;53049;43.446;3.698;2022-10-13T00:14:00;8.48;;;2.83;;
66256;SDS011;53049;43.446;3.698;2022-10-13T00:16:28;6.03;;;2.88;;
66256;SDS011;53049;43.446;3.698;2022-10-13T00:18:56;4.28;;;2.78;;
66256;SDS011;53049;43.446;3.698;2022-10-13T00:21:23;6.68;;;3.20;;
66256;SDS011;53049;43.446;3.698;2022-10-13T00:23:50;5.75;;;3.08;;
66256;SDS011;53049;43.446;3.698;2022-10-13T00:26:17;6.10;;;2.80;;
66256;SDS011;53049;43.446;3.698;2022-10-13T00:28:44;5.13;;;3.17;;
66256;SDS011;53049;43.446;3.698;2022-10-13T00:31:13;5.60;;;2.78;;
66256;SDS011;53049;43.446;3.698;2022-10-13T00:33:43;5.18;;;2.63;;
66256;SDS011;53049;43.446;3.698;2022-10-13T00:36:08;5.97;;;2.85;;
66256;SDS011;53049;43.446;3.698;2022-10-13T00:38:34;5.50;;;3.10;;
66256;SDS011;53049;43.446;3.698;2022-10-13T00:41:00;8.00;;;3.08;;
66256;SDS011;53049;43.446;3.698;2022-10-13T00:43:47;7.15;;;3.10;;
66256;SDS011;53049;43.446;3.698;2022-10-13T00:46:16;5.07;;;2.75;;
66256;SDS011;53049;43.446;3.698;2022-10-13T00:48:42;8.40;;;3.22;;
66256;SDS011;53049;43.446;3.698;2022-10-13T00:51:09;11.38;;;3.08;;
66256;SDS011;53049;43.446;3.698;2022-10-13T00:53:38;7.45;;;3.08;;
66256;SDS011;53049;43.446;3.698;2022-10-13T00:56:05;10.02;;;3.50;;
66256;SDS011;53049;43.446;3.698;2022-10-13T00:58:33;6.22;;;3.00;;
66256;SDS011;53049;43.446;3.698;2022-10-13T01:01:00;6.93;;;3.50;;
66256;SDS011;53049;43.446;3.698;2022-10-13T01:03:29;5.10;;;2.90;;
66256;SDS011;53049;43.446;3.698;2022-10-13T01:05:56;7.10;;;3.00;;
66256;SDS011;53049;43.446;3.698;2022-10-13T01:08:24;8.07;;;3.47;;
66256;SDS011;53049;43.446;3.698;2022-10-13T01:13:39;6.82;;;3.35;;
66256;SDS011;53049;43.446;3.698;2022-10-13T01:16:13;7.18;;;3.40;;
66256;SDS011;53049;43.446;3.698;2022-10-13T01:27:37;7.55;;;3.63;;
66256;SDS011;53049;43.446;3.698;2022-10-13T01:30:23;6.15;;;3.40;;
66256;SDS011;53049;43.446;3.698;2022-10-13T01:44:11;8.35;;;3.92;;
66256;SDS011;53049;43.446;3.698;2022-10-13T01:46:41;7.63;;;3.10;;
66256;SDS011;53049;43.446;3.698;2022-10-13T01:49:10;8.13;;;3.15;;
66256;SDS011;53049;43.446;3.698;2022-10-13T01:51:38;6.70;;;3.40;;
66256;SDS011;53049;43.446;3.698;2022-10-13T01:54:04;7.05;;;3.28;;
66256;SDS011;53049;43.446;3.698;2022-10-13T01:56:30;8.50;;;3.15;;
66256;SDS011;53049;43.446;3.698;2022-10-13T01:58:57;7.18;;;3.03;;
66256;SDS011;53049;43.446;3.698;2022-10-13T02:06:45;6.70;;;3.15;;
66256;SDS011;53049;43.446;3.698;2022-10-13T02:12:21;5.85;;;3.03;;
66256;SDS011;53049;43.446;3.698;2022-10-13T02:15:00;6.10;;;3.35;;
66256;SDS011;53049;43.446;3.698;2022-10-13T02:17:28;6.82;;;3.50;;
66256;SDS011;53049;43.446;3.698;2022-10-13T02:19:55;7.97;;;3.20;;
66256;SDS011;53049;43.446;3.698;2022-10-13T02:22:23;9.50;;;3.30;;
66256;SDS011;53049;43.446;3.698;2022-10-13T02:24:54;10.13;;;3.42;;
66256;SDS011;53049;43.446;3.698;2022-10-13T02:27:20;6.38;;;3.30;;
66256;SDS011;53049;43.446;3.698;2022-10-13T02:29:54;8.32;;;3.95;;
66256;SDS011;53049;43.446;3.698;2022-10-13T02:32:21;6.18;;;3.40;;
66256;SDS011;53049;43.446;3.698;2022-10-13T02:34:47;6.85;;;3.30;;
66256;SDS011;53049;43.446;3.698;2022-10-13T02:37:13;5.53;;;3.00;;
66256;SDS011;53049;43.446;3.698;2022-10-13T02:39:39;7.57;;;3.55;;
66256;SDS011;53049;43.446;3.698;2022-10-13T02:42:05;6.25;;;3.90;;
66256;SDS011;53049;43.446;3.698;2022-10-13T02:44:31;5.63;;;3.33;;
66256;SDS011;53049;43.446;3.698;2022-10-13T02:46:57;6.68;;;3.53;;
66256;SDS011;53049;43.446;3.698;2022-10-13T02:49:22;7.03;;;3.03;;
66256;SDS011;53049;43.446;3.698;2022-10-13T02:51:48;8.68;;;3.75;;
66256;SDS011;53049;43.446;3.698;2022-10-13T02:54:14;5.95;;;3.10;;
66256;SDS011;53049;43.446;3.698;2022-10-13T02:56:39;7.03;;;3.15;;
66256;SDS011;53049;43.446;3.698;2022-10-13T02:59:05;10.40;;;4.07;;
66256;SDS011;53049;43.446;3.698;2022-10-13T03:01:31;7.85;;;3.40;;
66256;SDS011;53049;43.446;3.698;2022-10-13T03:03:57;7.68;;;3.45;;
66256;SDS011;53049;43.446;3.698;2022-10-13T03:06:23;7.65;;;3.33;;
66256;SDS011;53049;43.446;3.698;2022-10-13T03:08:49;8.30;;;3.28;;
66256;SDS011;53049;43.446;3.698;2022-10-13T03:11:15;7.57;;;3.38;;
66256;SDS011;53049;43.446;3.698;2022-10-13T03:13:40;8.93;;;3.35;;
66256;SDS011;53049;43.446;3.698;2022-10-13T03:16:06;6.05;;;3.42;;
66256;SDS011;53049;43.446;3.698;2022-10-13T03:18:33;6.50;;;3.30;;
66256;SDS011;53049;43.446;3.698;2022-10-13T03:21:00;5.07;;;3.20;;
66256;SDS011;53049;43.446;3.698;2022-10-13T03:23:28;10.18;;;3.50;;
66256;SDS011;53049;43.446;3.698;2022-10-13T03:25:54;7.97;;;3.40;;
66256;SDS011;53049;43.446;3.698;2022-10-13T03:28:20;7.38;;;3.55;;
66256;SDS011;53049;43.446;3.698;2022-10-13T03:30:46;5.93;;;2.97;;
66256;SDS011;53049;43.446;3.698;2022-10-13T03:33:12;8.25;;;3.05;;
66256;SDS011;53049;43.446;3.698;2022-10-13T03:35:38;6.68;;;3.30;;
66256;SDS011;53049;43.446;3.698;2022-10-13T03:38:03;6.50;;;3.13;;
66256;SDS011;53049;43.446;3.698;2022-10-13T03:40:29;11.15;;;3.30;;
66256;SDS011;53049;43.446;3.698;2022-10-13T03:42:55;7.45;;;3.40;;
66256;SDS011;53049;43.446;3.698;2022-10-13T03:45:20;6.15;;;2.95;;
66256;SDS011;53049;43.446;3.698;2022-10-13T03:47:46;8.52;;;3.10;;
66256;SDS011;53049;43.446;3.698;2022-10-13T03:50:12;6.60;;;3.17;;
66256;SDS011;53049;43.446;3.698;2022-10-13T03:52:37;5.75;;;3.40;;
66256;SDS011;53049;43.446;3.698;2022-10-13T03:55:03;5.97;;;2.80;;
66256;SDS011;53049;43.446;3.698;2022-10-13T03:57:29;7.82;;;3.60;;
66256;SDS011;53049;43.446;3.698;2022-10-13T03:59:55;6.90;;;3.35;;
66256;SDS011;53049;43.446;3.698;2022-10-13T04:02:22;7.57;;;3.78;;
66256;SDS011;53049;43.446;3.698;2022-10-13T04:04:48;7.20;;;3.50;;
66256;SDS011;53049;43.446;3.698;2022-10-13T04:07:14;15.77;;;5.03;;
66256;SDS011;53049;43.446;3.698;2022-10-13T04:09:40;22.15;;;5.10;;
66256;SDS011;53049;43.446;3.698;2022-10-13T04:12:06;18.48;;;5.28;;
66256;SDS011;53049;43.446;3.698;2022-10-13T04:14:32;15.63;;;4.97;;
66256;SDS011;53049;43.446;3.698;2022-10-13T04:16:57;13.63;;;4.30;;
66256;SDS011;53049;43.446;3.698;2022-10-13T04:19:23;16.92;;;5.07;;
66256;SDS011;53049;43.446;3.698;2022-10-13T04:21:49;16.50;;;4.35;;
66256;SDS011;53049;43.446;3.698;2022-10-13T04:24:15;14.60;;;4.57;;
66256;SDS011;53049;43.446;3.698;2022-10-13T04:26:43;14.95;;;4.95;;
66256;SDS011;53049;43.446;3.698;2022-10-13T04:29:09;13.77;;;4.45;;
66256;SDS011;53049;43.446;3.698;2022-10-13T04:31:36;15.93;;;4.70;;
66256;SDS011;53049;43.446;3.698;2022-10-13T04:34:03;17.55;;;4.22;;
66256;SDS011;53049;43.446;3.698;2022-10-13T04:36:29;10.48;;;4.05;;
66256;SDS011;53049;43.446;3.698;2022-10-13T04:38:55;12.50;;;4.60;;
66256;SDS011;53049;43.446;3.698;2022-10-13T04:41:20;11.52;;;3.90;;
66256;SDS011;53049;43.446;3.698;2022-10-13T04:43:47;10.52;;;4.25;;
66256;SDS011;53049;43.446;3.698;2022-10-13T04:46:15;13.02;;;4.45;;
66256;SDS011;53049;43.446;3.698;2022-10-13T04:48:43;12.02;;;4.72;;
66256;SDS011;53049;43.446;3.698;2022-10-13T04:51:11;11.95;;;4.57;;
66256;SDS011;53049;43.446;3.698;2022-10-13T04:53:39;9.38;;;4.47;;
66256;SDS011;53049;43.446;3.698;2022-10-13T04:56:06;8.18;;;3.80;;
66256;SDS011;53049;43.446;3.698;2022-10-13T04:58:35;11.15;;;4.95;;
66256;SDS011;53049;43.446;3.698;2022-10-13T05:01:02;9.45;;;4.38;;
66256;SDS011;53049;43.446;3.698;2022-10-13T05:03:29;10.70;;;4.13;;
66256;SDS011;53049;43.446;3.698;2022-10-13T05:05:55;9.77;;;3.80;;
66256;SDS011;53049;43.446;3.698;2022-10-13T05:08:21;9.38;;;4.55;;
66256;SDS011;53049;43.446;3.698;2022-10-13T05:10:57;11.07;;;4.10;;
66256;SDS011;53049;43.446;3.698;2022-10-13T05:13:26;8.48;;;4.15;;
66256;SDS011;53049;43.446;3.698;2022-10-13T05:15:54;7.40;;;3.85;;
66256;SDS011;53049;43.446;3.698;2022-10-13T05:18:20;11.70;;;4.15;;
66256;SDS011;53049;43.446;3.698;2022-10-13T05:20:46;36.10;;;7.13;;
66256;SDS011;53049;43.446;3.698;2022-10-13T05:23:12;19.13;;;5.68;;
66256;SDS011;53049;43.446;3.698;2022-10-13T05:25:38;10.55;;;3.90;;
66256;SDS011;53049;43.446;3.698;2022-10-13T05:28:04;8.13;;;3.58;;
66256;SDS011;53049;43.446;3.698;2022-10-13T05:30:31;10.90;;;3.67;;
66256;SDS011;53049;43.446;3.698;2022-10-13T05:32:57;8.55;;;4.15;;
66256;SDS011;53049;43.446;3.698;2022-10-13T05:35:24;10.07;;;3.97;;
66256;SDS011;53049;43.446;3.698;2022-10-13T05:37:50;7.75;;;4.22;;
66256;SDS011;53049;43.446;3.698;2022-10-13T05:40:16;9.57;;;3.97;;
66256;SDS011;53049;43.446;3.698;2022-10-13T05:42:41;8.82;;;3.92;;
66256;SDS011;53049;43.446;3.698;2022-10-13T05:45:08;12.27;;;4.95;;
66256;SDS011;53049;43.446;3.698;2022-10-13T05:47:34;7.25;;;3.63;;
66256;SDS011;53049;43.446;3.698;2022-10-13T05:50:00;10.90;;;3.83;;
66256;SDS011;53049;43.446;3.698;2022-10-13T05:52:26;7.88;;;4.00;;
66256;SDS011;53049;43.446;3.698;2022-10-13T05:54:55;10.68;;;4.60;;
66256;SDS011;53049;43.446;3.698;2022-10-13T05:57:41;8.23;;;4.20;;
66256;SDS011;53049;43.446;3.698;2022-10-13T06:00:16;10.43;;;4.00;;
66256;SDS011;53049;43.446;3.698;2022-10-13T06:02:48;7.90;;;3.80;;
66256;SDS011;53049;43.446;3.698;2022-10-13T06:05:18;9.23;;;3.90;;
66256;SDS011;53049;43.446;3.698;2022-10-13T06:07:46;9.73;;;3.97;;
66256;SDS011;53049;43.446;3.698;2022-10-13T06:10:12;8.77;;;3.80;;
66256;SDS011;53049;43.446;3.698;2022-10-13T06:12:39;9.50;;;4.53;;
66256;SDS011;53049;43.446;3.698;2022-10-13T06:15:05;12.10;;;4.78;;
66256;SDS011;53049;43.446;3.698;2022-10-13T06:17:31;11.23;;;5.40;;
66256;SDS011;53049;43.446;3.698;2022-10-13T06:19:59;8.60;;;5.30;;
66256;SDS011;53049;43.446;3.698;2022-10-13T06:22:25;12.82;;;5.78;;
66256;SDS011;53049;43.446;3.698;2022-10-13T06:24:50;11.55;;;6.50;;
66256;SDS011;53049;43.446;3.698;2022-10-13T06:27:16;11.13;;;6.00;;
66256;SDS011;53049;43.446;3.698;2022-10-13T06:29:41;13.90;;;6.65;;
66256;SDS011;53049;43.446;3.698;2022-10-13T06:32:07;15.20;;;6.50;;
66256;SDS011;53049;43.446;3.698;2022-10-13T06:34:33;11.68;;;6.07;;
66256;SDS011;53049;43.446;3.698;2022-10-13T06:36:58;14.85;;;6.25;;
66256;SDS011;53049;43.446;3.698;2022-10-13T06:39:24;15.40;;;6.95;;
66256;SDS011;53049;43.446;3.698;2022-10-13T06:41:50;15.38;;;6.43;;
66256;SDS011;53049;43.446;3.698;2022-10-13T06:44:16;11.02;;;6.28;;
66256;SDS011;53049;43.446;3.698;2022-10-13T06:46:42;13.38;;;6.00;;
66256;SDS011;53049;43.446;3.698;2022-10-13T06:49:08;13.23;;;6.45;;
66256;SDS011;53049;43.446;3.698;2022-10-13T06:51:34;11.82;;;6.57;;
66256;SDS011;53049;43.446;3.698;2022-10-13T06:54:00;10.57;;;6.30;;
66256;SDS011;53049;43.446;3.698;2022-10-13T06:56:25;9.88;;;6.45;;
66256;SDS011;53049;43.446;3.698;2022-10-13T06:58:53;11.25;;;6.07;;
66256;SDS011;53049;43.446;3.698;2022-10-13T07:01:18;14.45;;;6.40;;
66256;SDS011;53049;43.446;3.698;2022-10-13T07:03:47;9.93;;;5.10;;
66256;SDS011;53049;43.446;3.698;2022-10-13T07:06:13;10.55;;;5.30;;
66256;SDS011;53049;43.446;3.698;2022-10-13T07:08:39;7.75;;;4.40;;
66256;SDS011;53049;43.446;3.698;2022-10-13T07:11:08;9.20;;;4.57;;
66256;SDS011;53049;43.446;3.698;2022-10-13T07:13:37;14.90;;;8.93;;
66256;SDS011;53049;43.446;3.698;2022-10-13T07:16:04;17.42;;;9.48;;
66256;SDS011;53049;43.446;3.698;2022-10-13T07:18:30;16.65;;;10.80;;
66256;SDS011;53049;43.446;3.698;2022-10-13T07:20:57;14.70;;;8.45;;
66256;SDS011;53049;43.446;3.698;2022-10-13T07:23:23;12.68;;;8.73;;
66256;SDS011;53049;43.446;3.698;2022-10-13T07:25:49;13.13;;;7.82;;
66256;SDS011;53049;43.446;3.698;2022-10-13T07:28:15;12.10;;;6.68;;
66256;SDS011;53049;43.446;3.698;2022-10-13T07:30:41;11.35;;;6.43;;
66256;SDS011;53049;43.446;3.698;2022-10-13T07:33:07;11.73;;;5.80;;
66256;SDS011;53049;43.446;3.698;2022-10-13T07:35:32;11.25;;;5.90;;
66256;SDS011;53049;43.446;3.698;2022-10-13T07:37:58;7.78;;;5.55;;
66256;SDS011;53049;43.446;3.698;2022-10-13T07:40:24;9.77;;;5.85;;
66256;SDS011;53049;43.446;3.698;2022-10-13T07:42:50;15.00;;;5.75;;
66256;SDS011;53049;43.446;3.698;2022-10-13T07:45:16;10.65;;;5.25;;
66256;SDS011;53049;43.446;3.698;2022-10-13T07:47:41;11.02;;;5.90;;
66256;SDS011;53049;43.446;3.698;2022-10-13T07:50:07;15.52;;;5.80;;
66256;SDS011;53049;43.446;3.698;2022-10-13T07:52:34;11.68;;;6.32;;
66256;SDS011;53049;43.446;3.698;2022-10-13T07:55:00;8.73;;;5.13;;
66256;SDS011;53049;43.446;3.698;2022-10-13T07:57:26;10.18;;;6.00;;
66256;SDS011;53049;43.446;3.698;2022-10-13T07:59:52;14.60;;;5.60;;
66256;SDS011;53049;43.446;3.698;2022-10-13T08:02:18;13.50;;;6.90;;
66256;SDS011;53049;43.446;3.698;2022-10-13T08:04:44;19.20;;;7.68;;
66256;SDS011;53049;43.446;3.698;2022-10-13T08:07:09;16.92;;;7.22;;
66256;SDS011;53049;43.446;3.698;2022-10-13T08:09:35;19.25;;;7.15;;
66256;SDS011;53049;43.446;3.698;2022-10-13T08:12:01;18.02;;;7.43;;
66256;SDS011;53049;43.446;3.698;2022-10-13T08:14:28;15.32;;;6.85;;
66256;SDS011;53049;43.446;3.698;2022-10-13T08:16:54;12.93;;;7.25;;
66256;SDS011;53049;43.446;3.698;2022-10-13T08:19:20;17.23;;;7.75;;
66256;SDS011;53049;43.446;3.698;2022-10-13T08:21:46;18.92;;;7.85;;
66256;SDS011;53049;43.446;3.698;2022-10-13T08:24:13;10.05;;;6.72;;
66256;SDS011;53049;43.446;3.698;2022-10-13T08:26:41;9.52;;;5.32;;
66256;SDS011;53049;43.446;3.698;2022-10-13T08:29:08;11.32;;;6.43;;
66256;SDS011;53049;43.446;3.698;2022-10-13T08:31:34;14.65;;;7.00;;
66256;SDS011;53049;43.446;3.698;2022-10-13T08:34:00;19.83;;;6.75;;
66256;SDS011;53049;43.446;3.698;2022-10-13T08:36:26;23.52;;;7.25;;
66256;SDS011;53049;43.446;3.698;2022-10-13T08:38:51;15.13;;;6.78;;
66256;SDS011;53049;43.446;3.698;2022-10-13T08:41:19;15.25;;;6.60;;
66256;SDS011;53049;43.446;3.698;2022-10-13T08:43:48;12.70;;;6.82;;
66256;SDS011;53049;43.446;3.698;2022-10-13T08:46:23;10.98;;;6.22;;
66256;SDS011;53049;43.446;3.698;2022-10-13T08:48:51;13.40;;;5.95;;
66256;SDS011;53049;43.446;3.698;2022-10-13T08:51:17;20.30;;;6.95;;
66256;SDS011;53049;43.446;3.698;2022-10-13T08:53:45;12.27;;;6.60;;
66256;SDS011;53049;43.446;3.698;2022-10-13T08:58:43;16.13;;;6.53;;
66256;SDS011;53049;43.446;3.698;2022-10-13T09:04:01;15.68;;;8.63;;
66256;SDS011;53049;43.446;3.698;2022-10-13T09:06:57;16.20;;;8.18;;
66256;SDS011;53049;43.446;3.698;2022-10-13T09:09:28;15.30;;;8.25;;
66256;SDS011;53049;43.446;3.698;2022-10-13T09:11:54;17.23;;;8.30;;
66256;SDS011;53049;43.446;3.698;2022-10-13T09:14:24;15.10;;;7.47;;
66256;SDS011;53049;43.446;3.698;2022-10-13T09:16:52;15.40;;;7.75;;
66256;SDS011;53049;43.446;3.698;2022-10-13T09:19:26;13.98;;;7.03;;
66256;SDS011;53049;43.446;3.698;2022-10-13T09:22:13;16.05;;;7.82;;
66256;SDS011;53049;43.446;3.698;2022-10-13T09:24:39;20.77;;;8.02;;
66256;SDS011;53049;43.446;3.698;2022-10-13T09:27:08;21.08;;;8.82;;
66256;SDS011;53049;43.446;3.698;2022-10-13T09:29:37;18.63;;;7.65;;
66256;SDS011;53049;43.446;3.698;2022-10-13T09:32:14;17.65;;;7.38;;
66256;SDS011;53049;43.446;3.698;2022-10-13T09:34:45;15.25;;;6.88;;
66256;SDS011;53049;43.446;3.698;2022-10-13T09:42:49;13.00;;;6.00;;
66256;SDS011;53049;43.446;3.698;2022-10-13T09:45:17;15.10;;;5.72;;
66256;SDS011;53049;43.446;3.698;2022-10-13T09:47:49;15.35;;;5.93;;
66256;SDS011;53049;43.446;3.698;2022-10-13T09:50:24;10.93;;;5.82;;
66256;SDS011;53049;43.446;3.698;2022-10-13T09:52:53;11.43;;;6.05;;
66256;SDS011;53049;43.446;3.698;2022-10-13T09:58:51;16.15;;;5.72;;
66256;SDS011;53049;43.446;3.698;2022-10-13T10:01:24;9.23;;;5.57;;
66256;SDS011;53049;43.446;3.698;2022-10-13T10:03:58;11.73;;;5.88;;
66256;SDS011;53049;43.446;3.698;2022-10-13T10:06:28;10.90;;;5.68;;
66256;SDS011;53049;43.446;3.698;2022-10-13T10:08:57;13.57;;;5.60;;
66256;SDS011;53049;43.446;3.698;2022-10-13T10:11:42;12.75;;;5.65;;
66256;SDS011;53049;43.446;3.698;2022-10-13T10:16:45;11.80;;;5.97;;
66256;SDS011;53049;43.446;3.698;2022-10-13T10:19:19;10.18;;;5.55;;
66256;SDS011;53049;43.446;3.698;2022-10-13T10:21:59;10.20;;;5.38;;
66256;SDS011;53049;43.446;3.698;2022-10-13T10:27:39;10.57;;;5.38;;
66256;SDS011;53049;43.446;3.698;2022-10-13T10:30:16;9.80;;;5.05;;
66256;SDS011;53049;43.446;3.698;2022-10-13T10:35:43;9.20;;;4.82;;
66256;SDS011;53049;43.446;3.698;2022-10-13T10:38:16;7.70;;;4.45;;
66256;SDS011;53049;43.446;3.698;2022-10-13T10:46:51;7.78;;;4.70;;
66256;SDS011;53049;43.446;3.698;2022-10-13T10:49:27;9.65;;;4.72;;
66256;SDS011;53049;43.446;3.698;2022-10-13T10:51:58;8.40;;;5.00;;
66256;SDS011;53049;43.446;3.698;2022-10-13T10:54:39;11.18;;;4.85;;
66256;SDS011;53049;43.446;3.698;2022-10-13T10:57:20;8.52;;;4.90;;
66256;SDS011;53049;43.446;3.698;2022-10-13T11:05:30;9.65;;;5.28;;
66256;SDS011;53049;43.446;3.698;2022-10-13T11:16:34;8.18;;;4.20;;
66256;SDS011;53049;43.446;3.698;2022-10-13T11:19:04;9.90;;;4.72;;
66256;SDS011;53049;43.446;3.698;2022-10-13T11:51:31;9.82;;;5.28;;
66256;SDS011;53049;43.446;3.698;2022-10-13T11:54:09;8.60;;;4.82;;
66256;SDS011;53049;43.446;3.698;2022-10-13T11:56:53;8.90;;;5.15;;
66256;SDS011;53049;43.446;3.698;2022-10-13T11:59:29;8.52;;;4.55;;
66256;SDS011;53049;43.446;3.698;2022-10-13T12:02:18;11.57;;;5.10;;
66256;SDS011;53049;43.446;3.698;2022-10-13T12:04:44;10.23;;;4.65;;
66256;SDS011;53049;43.446;3.698;2022-10-13T12:07:23;8.32;;;4.55;;
66256;SDS011;53049;43.446;3.698;2022-10-13T12:09:55;8.73;;;5.13;;
66256;SDS011;53049;43.446;3.698;2022-10-13T12:12:22;9.15;;;4.40;;
66256;SDS011;53049;43.446;3.698;2022-10-13T12:14:49;9.23;;;4.85;;
66256;SDS011;53049;43.446;3.698;2022-10-13T12:19:57;9.25;;;4.32;;
66256;SDS011;53049;43.446;3.698;2022-10-13T12:22:25;10.52;;;4.72;;
66256;SDS011;53049;43.446;3.698;2022-10-13T12:25:01;6.95;;;4.03;;
66256;SDS011;53049;43.446;3.698;2022-10-13T12:27:29;13.57;;;4.30;;
66256;SDS011;53049;43.446;3.698;2022-10-13T12:30:02;10.25;;;4.15;;
66256;SDS011;53049;43.446;3.698;2022-10-13T12:32:29;9.07;;;4.72;;
66256;SDS011;53049;43.446;3.698;2022-10-13T12:37:42;12.13;;;4.78;;
66256;SDS011;53049;43.446;3.698;2022-10-13T12:40:11;15.57;;;4.78;;
66256;SDS011;53049;43.446;3.698;2022-10-13T12:42:39;11.77;;;5.05;;
66256;SDS011;53049;43.446;3.698;2022-10-13T12:45:06;10.07;;;4.50;;
66256;SDS011;53049;43.446;3.698;2022-10-13T12:52:54;14.70;;;5.43;;
66256;SDS011;53049;43.446;3.698;2022-10-13T12:55:32;9.85;;;5.13;;
66256;SDS011;53049;43.446;3.698;2022-10-13T12:57:59;12.70;;;4.80;;
66256;SDS011;53049;43.446;3.698;2022-10-13T13:00:26;12.32;;;4.97;;
66256;SDS011;53049;43.446;3.698;2022-10-13T13:03:03;16.90;;;5.40;;
66256;SDS011;53049;43.446;3.698;2022-10-13T13:05:35;14.02;;;5.78;;
66256;SDS011;53049;43.446;3.698;2022-10-13T13:08:01;15.05;;;4.53;;
66256;SDS011;53049;43.446;3.698;2022-10-13T13:10:28;12.43;;;4.60;;
66256;SDS011;53049;43.446;3.698;2022-10-13T13:12:55;14.60;;;4.53;;
66256;SDS011;53049;43.446;3.698;2022-10-13T13:15:36;10.52;;;4.18;;
66256;SDS011;53049;43.446;3.698;2022-10-13T13:21:10;11.52;;;4.00;;
66256;SDS011;53049;43.446;3.698;2022-10-13T13:23:38;11.70;;;3.95;;
66256;SDS011;53049;43.446;3.698;2022-10-13T13:28:45;9.27;;;4.25;;
66256;SDS011;53049;43.446;3.698;2022-10-13T13:31:13;12.63;;;4.20;;
66256;SDS011;53049;43.446;3.698;2022-10-13T13:33:40;17.40;;;5.00;;
66256;SDS011;53049;43.446;3.698;2022-10-13T13:36:22;17.20;;;5.22;;
66256;SDS011;53049;43.446;3.698;2022-10-13T13:38:49;18.63;;;5.50;;
66256;SDS011;53049;43.446;3.698;2022-10-13T13:41:16;13.32;;;5.43;;
66256;SDS011;53049;43.446;3.698;2022-10-13T13:43:42;11.25;;;4.75;;
66256;SDS011;53049;43.446;3.698;2022-10-13T13:46:15;17.50;;;4.47;;
66256;SDS011;53049;43.446;3.698;2022-10-13T13:48:42;18.08;;;4.80;;
66256;SDS011;53049;43.446;3.698;2022-10-13T13:51:08;14.10;;;4.97;;
66256;SDS011;53049;43.446;3.698;2022-10-13T13:53:34;13.95;;;4.38;;
66256;SDS011;53049;43.446;3.698;2022-10-13T13:56:00;10.40;;;4.47;;
66256;SDS011;53049;43.446;3.698;2022-10-13T13:58:26;14.73;;;5.57;;
66256;SDS011;53049;43.446;3.698;2022-10-13T14:00:51;14.13;;;4.53;;
66256;SDS011;53049;43.446;3.698;2022-10-13T14:03:17;14.93;;;4.80;;
66256;SDS011;53049;43.446;3.698;2022-10-13T14:05:43;13.52;;;4.15;;
66256;SDS011;53049;43.446;3.698;2022-10-13T14:08:08;12.93;;;4.85;;
66256;SDS011;53049;43.446;3.698;2022-10-13T14:10:34;10.00;;;4.30;;
66256;SDS011;53049;43.446;3.698;2022-10-13T14:13:00;7.93;;;4.20;;
66256;SDS011;53049;43.446;3.698;2022-10-13T14:15:25;10.30;;;4.32;;
66256;SDS011;53049;43.446;3.698;2022-10-13T14:17:51;8.80;;;3.85;;
66256;SDS011;53049;43.446;3.698;2022-10-13T14:20:18;10.57;;;4.00;;
66256;SDS011;53049;43.446;3.698;2022-10-13T14:22:44;13.40;;;4.35;;
66256;SDS011;53049;43.446;3.698;2022-10-13T14:25:10;9.65;;;4.40;;
66256;SDS011;53049;43.446;3.698;2022-10-13T14:27:35;12.20;;;4.88;;
66256;SDS011;53049;43.446;3.698;2022-10-13T14:30:02;11.30;;;4.10;;
66256;SDS011;53049;43.446;3.698;2022-10-13T14:32:29;9.63;;;3.88;;
66256;SDS011;53049;43.446;3.698;2022-10-13T14:34:54;6.15;;;3.67;;
66256;SDS011;53049;43.446;3.698;2022-10-13T14:37:20;8.57;;;4.05;;
66256;SDS011;53049;43.446;3.698;2022-10-13T14:39:46;9.60;;;4.07;;
66256;SDS011;53049;43.446;3.698;2022-10-13T14:42:11;8.35;;;4.22;;
66256;SDS011;53049;43.446;3.698;2022-10-13T14:44:37;10.27;;;4.50;;
66256;SDS011;53049;43.446;3.698;2022-10-13T14:47:03;11.10;;;4.40;;
66256;SDS011;53049;43.446;3.698;2022-10-13T14:49:28;12.88;;;4.53;;
66256;SDS011;53049;43.446;3.698;2022-10-13T14:51:54;11.40;;;3.95;;
66256;SDS011;53049;43.446;3.698;2022-10-13T14:54:20;10.27;;;4.45;;
66256;SDS011;53049;43.446;3.698;2022-10-13T14:56:45;8.70;;;4.13;;
66256;SDS011;53049;43.446;3.698;2022-10-13T14:59:11;9.60;;;4.47;;
66256;SDS011;53049;43.446;3.698;2022-10-13T15:01:38;12.77;;;4.30;;
66256;SDS011;53049;43.446;3.698;2022-10-13T15:04:05;11.98;;;4.43;;
66256;SDS011;53049;43.446;3.698;2022-10-13T15:06:31;12.07;;;4.43;;
66256;SDS011;53049;43.446;3.698;2022-10-13T15:08:57;11.90;;;4.38;;
66256;SDS011;53049;43.446;3.698;2022-10-13T15:11:24;11.38;;;4.60;;
66256;SDS011;53049;43.446;3.698;2022-10-13T15:13:50;9.15;;;4.50;;
66256;SDS011;53049;43.446;3.698;2022-10-13T15:16:23;12.75;;;5.15;;
66256;SDS011;53049;43.446;3.698;2022-10-13T15:18:54;12.32;;;4.72;;
66256;SDS011;53049;43.446;3.698;2022-10-13T15:21:20;8.35;;;4.38;;
66256;SDS011;53049;43.446;3.698;2022-10-13T15:23:46;15.38;;;5.18;;
66256;SDS011;53049;43.446;3.698;2022-10-13T15:26:13;10.07;;;4.82;;
66256;SDS011;53049;43.446;3.698;2022-10-13T15:28:43;7.72;;;4.30;;
66256;SDS011;53049;43.446;3.698;2022-10-13T15:31:11;11.38;;;4.30;;
66256;SDS011;53049;43.446;3.698;2022-10-13T15:33:37;10.60;;;4.60;;
66256;SDS011;53049;43.446;3.698;2022-10-13T15:36:05;8.07;;;4.28;;
66256;SDS011;53049;43.446;3.698;2022-10-13T15:38:31;9.93;;;5.30;;
66256;SDS011;53049;43.446;3.698;2022-10-13T15:40:57;9.93;;;4.65;;
66256;SDS011;53049;43.446;3.698;2022-10-13T15:43:28;8.57;;;4.15;;
66256;SDS011;53049;43.446;3.698;2022-10-13T15:45:55;10.93;;;4.88;;
66256;SDS011;53049;43.446;3.698;2022-10-13T15:48:23;6.90;;;4.53;;
66256;SDS011;53049;43.446;3.698;2022-10-13T15:50:49;12.00;;;4.30;;
66256;SDS011;53049;43.446;3.698;2022-10-13T15:53:15;10.52;;;4.63;;
66256;SDS011;53049;43.446;3.698;2022-10-13T15:55:40;11.38;;;4.00;;
66256;SDS011;53049;43.446;3.698;2022-10-13T15:58:06;8.10;;;4.30;;
66256;SDS011;53049;43.446;3.698;2022-10-13T16:00:32;9.90;;;4.43;;
66256;SDS011;53049;43.446;3.698;2022-10-13T16:02:57;12.35;;;4.35;;
66256;SDS011;53049;43.446;3.698;2022-10-13T16:05:23;9.07;;;4.72;;
66256;SDS011;53049;43.446;3.698;2022-10-13T16:07:49;9.98;;;4.47;;
66256;SDS011;53049;43.446;3.698;2022-10-13T16:10:15;11.85;;;4.68;;
66256;SDS011;53049;43.446;3.698;2022-10-13T16:12:41;11.45;;;5.00;;
66256;SDS011;53049;43.446;3.698;2022-10-13T16:15:08;9.70;;;5.05;;
66256;SDS011;53049;43.446;3.698;2022-10-13T16:17:35;11.27;;;4.68;;
66256;SDS011;53049;43.446;3.698;2022-10-13T16:20:01;12.25;;;5.13;;
66256;SDS011;53049;43.446;3.698;2022-10-13T16:22:27;10.15;;;5.18;;
66256;SDS011;53049;43.446;3.698;2022-10-13T16:24:53;12.55;;;5.05;;
66256;SDS011;53049;43.446;3.698;2022-10-13T16:27:19;10.32;;;4.80;;
66256;SDS011;53049;43.446;3.698;2022-10-13T16:29:45;16.30;;;5.18;;
66256;SDS011;53049;43.446;3.698;2022-10-13T16:32:11;15.00;;;5.40;;
66256;SDS011;53049;43.446;3.698;2022-10-13T16:34:37;13.65;;;5.22;;
66256;SDS011;53049;43.446;3.698;2022-10-13T16:37:03;20.60;;;6.10;;
66256;SDS011;53049;43.446;3.698;2022-10-13T16:39:28;13.45;;;5.85;;
66256;SDS011;53049;43.446;3.698;2022-10-13T16:41:54;10.35;;;5.18;;
66256;SDS011;53049;43.446;3.698;2022-10-13T16:44:19;15.25;;;5.72;;
66256;SDS011;53049;43.446;3.698;2022-10-13T16:46:45;15.93;;;6.15;;